createdAt,value
2018-02-27T00:01:18.877Z,64.93
2018-02-27T00:03:49.623Z,65.29
2018-02-27T00:06:20.414Z,65.00
2018-02-27T00:08:51.145Z,65.10
2018-02-27T00:11:21.927Z,64.79
2018-02-27T00:13:52.703Z,65.65
2018-02-27T00:16:25.519Z,65.28
2018-02-27T00:18:56.284Z,65.92
2018-02-27T00:21:27.044Z,65.48
2018-02-27T00:23:57.802Z,65.75
2018-02-27T00:26:28.579Z,65.21
2018-02-27T00:28:59.362Z,65.90
2018-02-27T00:31:30.135Z,66.33
2018-02-27T00:34:00.889Z,65.89
2018-02-27T00:36:31.659Z,66.26
2018-02-27T00:39:02.436Z,66.65
2018-02-27T00:41:33.196Z,65.86
2018-02-27T00:44:03.944Z,66.50
2018-02-27T00:46:34.710Z,65.62
2018-02-27T00:49:05.458Z,65.86
2018-02-27T00:51:36.212Z,65.62
2018-02-27T00:54:06.965Z,66.42
2018-02-27T00:56:37.735Z,66.09
2018-02-27T00:59:08.485Z,66.28
2018-02-27T01:01:39.285Z,66.82
2018-02-27T01:04:10.061Z,67.21
2018-02-27T01:06:40.833Z,66.77
2018-02-27T01:09:13.679Z,66.45
2018-02-27T01:11:44.472Z,66.44
2018-02-27T01:14:15.245Z,67.09
2018-02-27T01:16:46.046Z,67.38
2018-02-27T01:19:16.817Z,66.67
2018-02-27T01:21:47.591Z,67.00
2018-02-27T01:24:18.349Z,65.91
2018-02-27T01:26:49.105Z,66.45
2018-02-27T01:29:19.857Z,66.74
2018-02-27T01:31:50.647Z,66.51
2018-02-27T01:34:21.413Z,66.98
2018-02-27T01:36:52.189Z,67.95
2018-02-27T01:39:22.945Z,67.05
2018-02-27T01:41:53.709Z,67.35
2018-02-27T01:44:24.586Z,66.88
2018-02-27T01:46:55.364Z,66.55
2018-02-27T01:49:26.104Z,67.03
2018-02-27T01:51:56.889Z,67.66
2018-02-27T01:54:27.696Z,67.98
2018-02-27T01:56:58.482Z,67.55
2018-02-27T01:59:29.269Z,67.68
2018-02-27T02:02:00.046Z,67.69
2018-02-27T02:04:30.802Z,68.21
2018-02-27T02:07:01.573Z,68.24
2018-02-27T02:09:32.414Z,68.21
2018-02-27T02:12:10.090Z,69.18
2018-02-27T02:14:40.838Z,67.62
2018-02-27T02:17:11.613Z,67.52
2018-02-27T02:19:42.385Z,68.73
2018-02-27T02:22:13.202Z,67.76
2018-02-27T02:24:43.987Z,67.99
2018-02-27T02:27:14.773Z,68.04
2018-02-27T02:29:45.528Z,68.99
2018-02-27T02:32:16.291Z,67.99
2018-02-27T02:34:47.070Z,66.87
2018-02-27T02:37:17.862Z,69.25
2018-02-27T02:39:48.616Z,68.98
2018-02-27T02:42:22.333Z,68.03
2018-02-27T02:44:53.147Z,69.14
2018-02-27T02:47:23.935Z,69.46
2018-02-27T02:49:54.696Z,68.83
2018-02-27T02:52:25.488Z,68.28
2018-02-27T02:54:56.237Z,68.49
2018-02-27T02:57:26.997Z,69.17
2018-02-27T02:59:57.757Z,68.86
2018-02-27T03:02:28.598Z,69.04
2018-02-27T03:04:59.353Z,68.91
2018-02-27T03:07:30.121Z,68.27
2018-02-27T03:10:00.900Z,68.96
2018-02-27T03:12:31.690Z,68.32
2018-02-27T03:15:02.453Z,68.63
2018-02-27T03:17:33.229Z,69.68
2018-02-27T03:20:04.055Z,69.07
2018-02-27T03:22:34.813Z,68.76
2018-02-27T03:25:05.587Z,68.38
2018-02-27T03:27:36.373Z,68.95
2018-02-27T03:30:07.187Z,68.28
2018-02-27T03:32:37.989Z,68.17
2018-02-27T03:35:08.749Z,68.13
2018-02-27T03:37:39.529Z,69.24
2018-02-27T03:40:10.305Z,69.41
2018-02-27T03:42:41.100Z,68.46
2018-02-27T03:45:11.861Z,69.14
2018-02-27T03:47:42.649Z,68.58
2018-02-27T03:50:13.414Z,68.81
2018-02-27T03:52:44.193Z,68.85
2018-02-27T03:55:14.977Z,68.65
2018-02-27T03:57:45.798Z,68.77
2018-02-27T04:00:16.564Z,68.64
2018-02-27T04:02:47.338Z,68.07
2018-02-27T04:05:18.110Z,67.90
2018-02-27T04:07:48.887Z,68.54
2018-02-27T04:10:19.653Z,68.50
2018-02-27T04:12:50.476Z,68.42
2018-02-27T04:15:21.262Z,69.18
2018-02-27T04:17:52.066Z,69.28
2018-02-27T04:20:22.829Z,69.24
2018-02-27T04:22:53.612Z,69.74
2018-02-27T04:25:24.365Z,69.78
2018-02-27T04:27:55.159Z,70.11
2018-02-27T04:30:25.936Z,70.43
2018-02-27T04:32:56.724Z,69.87
2018-02-27T04:35:27.500Z,70.42
2018-02-27T04:37:58.260Z,70.57
2018-02-27T04:40:29.023Z,71.33
2018-02-27T04:42:59.805Z,71.76
2018-02-27T04:45:30.608Z,72.04
2018-02-27T04:48:01.385Z,72.10
2018-02-27T04:50:32.157Z,71.98
2018-02-27T04:53:02.928Z,72.37
2018-02-27T04:55:33.680Z,72.80
2018-02-27T04:58:04.441Z,72.62
2018-02-27T05:00:35.246Z,72.92
2018-02-27T05:03:06.065Z,72.11
2018-02-27T05:05:36.784Z,71.71
2018-02-27T05:08:07.552Z,72.47
2018-02-27T05:10:38.329Z,72.55
2018-02-27T05:13:09.096Z,72.96
2018-02-27T05:15:39.866Z,72.60
2018-02-27T05:18:10.656Z,72.91
2018-02-27T05:20:41.425Z,73.41
2018-02-27T05:23:12.220Z,73.37
2018-02-27T05:25:42.989Z,72.54
2018-02-27T05:28:13.769Z,72.51
2018-02-27T05:30:44.529Z,71.91
2018-02-27T05:33:15.310Z,72.17
2018-02-27T05:35:46.088Z,71.99
2018-02-27T05:38:16.853Z,71.90
2018-02-27T05:40:47.614Z,71.33
2018-02-27T05:43:18.357Z,71.12
2018-02-27T05:45:49.149Z,71.54
2018-02-27T05:48:19.909Z,70.93
2018-02-27T05:50:50.685Z,71.38
2018-02-27T05:53:21.441Z,70.85
2018-02-27T05:55:52.192Z,71.13
2018-02-27T05:58:22.941Z,71.67
2018-02-27T06:00:53.704Z,72.35
2018-02-27T06:03:24.461Z,72.42
2018-02-27T06:05:55.216Z,72.31
2018-02-27T06:08:26.061Z,72.12
2018-02-27T06:10:56.840Z,71.46
2018-02-27T06:13:27.626Z,70.85
2018-02-27T06:15:58.421Z,70.85
2018-02-27T06:18:29.186Z,71.16
2018-02-27T06:21:00.045Z,70.67
2018-02-27T06:23:30.842Z,70.72
2018-02-27T06:26:01.626Z,70.37
2018-02-27T06:28:32.381Z,70.11
2018-02-27T06:31:03.165Z,70.07
2018-02-27T06:33:34.036Z,69.70
2018-02-27T06:36:04.808Z,69.36
2018-02-27T06:38:35.594Z,69.18
2018-02-27T06:41:06.375Z,68.79
2018-02-27T06:43:37.208Z,68.50
2018-02-27T06:46:07.997Z,69.20
2018-02-27T06:48:38.744Z,67.74
2018-02-27T06:51:09.513Z,67.84
2018-02-27T06:53:40.285Z,67.21
2018-02-27T06:56:11.078Z,66.56
2018-02-27T06:58:41.882Z,67.23
2018-02-27T07:01:12.649Z,65.45
2018-02-27T07:03:43.405Z,65.92
2018-02-27T07:06:14.185Z,65.57
2018-02-27T07:08:44.944Z,64.95
2018-02-27T07:11:15.716Z,64.92
2018-02-27T07:13:46.490Z,64.22
2018-02-27T07:16:17.275Z,63.76
2018-02-27T07:18:48.111Z,63.82
2018-02-27T07:21:18.882Z,63.96
2018-02-27T07:23:49.655Z,62.43
2018-02-27T07:26:20.436Z,62.53
2018-02-27T07:28:52.239Z,63.10
2018-02-27T07:31:23.010Z,62.04
2018-02-27T07:33:53.829Z,61.06
2018-02-27T07:36:24.614Z,61.58
2018-02-27T07:38:55.512Z,60.78
2018-02-27T07:41:26.345Z,61.27
2018-02-27T07:43:57.146Z,60.20
2018-02-27T07:46:27.921Z,61.06
2018-02-27T07:48:58.687Z,60.46
2018-02-27T07:51:29.473Z,59.98
2018-02-27T07:54:00.234Z,58.59
2018-02-27T07:56:31.046Z,58.37
2018-02-27T07:59:01.817Z,57.28
2018-02-27T08:01:32.614Z,57.92
2018-02-27T08:04:03.410Z,57.67
2018-02-27T08:06:34.202Z,57.80
2018-02-27T08:09:04.978Z,56.50
2018-02-27T08:11:35.758Z,56.44
2018-02-27T08:14:06.533Z,55.95
2018-02-27T08:16:37.326Z,55.73
2018-02-27T08:19:08.138Z,56.20
2018-02-27T08:21:38.917Z,54.61
2018-02-27T08:24:09.660Z,55.25
2018-02-27T08:26:40.433Z,56.11
2018-02-27T08:29:11.217Z,54.90
2018-02-27T08:31:42.005Z,56.05
2018-02-27T08:34:12.771Z,54.79
2018-02-27T08:36:43.529Z,53.87
2018-02-27T08:39:14.276Z,54.07
2018-02-27T08:41:45.040Z,54.24
2018-02-27T08:44:15.808Z,53.87
2018-02-27T08:46:46.553Z,54.09
2018-02-27T08:49:17.316Z,54.22
2018-02-27T08:51:48.091Z,53.62
2018-02-27T08:54:19.904Z,53.66
2018-02-27T08:56:50.674Z,53.41
2018-02-27T08:59:21.429Z,54.06
2018-02-27T09:01:52.200Z,54.01
2018-02-27T09:04:22.969Z,51.49
2018-02-27T09:06:53.720Z,51.92
2018-02-27T09:09:24.489Z,52.60
2018-02-27T09:11:55.244Z,53.53
2018-02-27T09:14:26.081Z,53.47
2018-02-27T09:16:57.833Z,51.78
2018-02-27T09:19:28.585Z,52.17
2018-02-27T09:21:59.358Z,52.35
2018-02-27T09:24:30.109Z,52.33
2018-02-27T09:27:00.899Z,53.36
2018-02-27T09:29:31.665Z,53.02
2018-02-27T09:32:02.434Z,51.64
2018-02-27T09:34:33.197Z,52.98
2018-02-27T09:37:04.061Z,51.36
2018-02-27T09:39:34.813Z,52.31
2018-02-27T09:42:05.593Z,51.90
2018-02-27T09:44:36.436Z,52.91
2018-02-27T09:47:07.200Z,52.19
2018-02-27T09:49:39.034Z,51.55
2018-02-27T09:52:09.826Z,53.16
2018-02-27T09:54:40.587Z,54.27
2018-02-27T09:57:11.359Z,51.91
2018-02-27T09:59:42.117Z,51.45
2018-02-27T10:02:12.905Z,51.23
2018-02-27T10:04:44.133Z,51.56
2018-02-27T10:07:14.901Z,50.73
2018-02-27T10:09:45.679Z,51.40
2018-02-27T10:12:16.440Z,52.59
2018-02-27T10:14:47.201Z,50.41
2018-02-27T10:17:17.962Z,50.46
2018-02-27T10:19:48.779Z,50.73
2018-02-27T10:22:19.550Z,49.54
2018-02-27T10:24:50.389Z,51.39
2018-02-27T10:27:21.168Z,49.01
2018-02-27T10:29:51.948Z,48.35
2018-02-27T10:32:22.737Z,49.83
2018-02-27T10:34:53.534Z,47.60
2018-02-27T10:37:24.319Z,49.93
2018-02-27T10:39:55.098Z,46.78
2018-02-27T10:42:25.860Z,47.86
2018-02-27T10:44:56.632Z,48.05
2018-02-27T10:47:27.373Z,49.23
2018-02-27T10:49:58.130Z,46.88
2018-02-27T10:52:28.901Z,47.65
2018-02-27T10:54:59.675Z,47.61
2018-02-27T10:57:30.418Z,48.15
2018-02-27T11:00:01.209Z,47.75
2018-02-27T11:02:31.965Z,46.34
2018-02-27T11:05:02.740Z,46.32
2018-02-27T11:07:33.521Z,46.92
2018-02-27T11:10:04.295Z,48.38
2018-02-27T11:12:35.061Z,46.00
2018-02-27T11:15:05.838Z,47.21
2018-02-27T11:17:36.621Z,45.55
2018-02-27T11:20:07.373Z,45.17
2018-02-27T11:22:38.144Z,45.61
2018-02-27T11:25:08.917Z,44.38
2018-02-27T11:27:39.668Z,43.03
2018-02-27T11:30:10.444Z,43.14
2018-02-27T11:32:41.214Z,42.22
2018-02-27T11:35:11.998Z,45.45
2018-02-27T11:37:42.770Z,46.32
2018-02-27T11:40:13.532Z,45.40
2018-02-27T11:42:44.301Z,46.22
2018-02-27T11:45:15.077Z,47.51
2018-02-27T11:47:45.854Z,46.80
2018-02-27T11:50:16.630Z,47.61
2018-02-27T11:52:47.390Z,43.71
2018-02-27T11:55:18.186Z,45.37
2018-02-27T11:57:48.942Z,45.36
2018-02-27T12:00:19.721Z,43.42
2018-02-27T12:02:50.473Z,42.64
2018-02-27T12:05:21.244Z,44.16
2018-02-27T12:07:51.994Z,44.68
2018-02-27T12:10:22.786Z,45.68
2018-02-27T12:12:53.561Z,47.23
2018-02-27T12:15:24.345Z,47.04
2018-02-27T12:17:55.110Z,46.09
2018-02-27T12:20:25.886Z,46.01
2018-02-27T12:22:56.632Z,44.49
2018-02-27T12:25:27.397Z,46.47
2018-02-27T12:27:58.153Z,45.16
2018-02-27T12:30:28.924Z,43.85
2018-02-27T12:32:59.671Z,44.14
2018-02-27T12:35:30.437Z,47.49
2018-02-27T12:38:01.185Z,46.22
2018-02-27T12:40:31.937Z,45.22
2018-02-27T12:43:02.683Z,45.40
2018-02-27T12:45:33.466Z,45.51
2018-02-27T12:48:04.222Z,47.40
2018-02-27T12:50:34.998Z,46.13
2018-02-27T12:53:05.757Z,44.88
2018-02-27T12:55:36.512Z,44.28
2018-02-27T12:58:07.252Z,44.28
2018-02-27T13:00:38.025Z,46.56
2018-02-27T13:03:08.777Z,46.62
2018-02-27T13:05:39.579Z,46.19
2018-02-27T13:08:11.123Z,46.42
2018-02-27T13:10:41.900Z,45.24
2018-02-27T13:13:12.706Z,46.05
2018-02-27T13:15:43.485Z,45.61
2018-02-27T13:18:14.263Z,45.69
2018-02-27T13:20:45.041Z,43.93
2018-02-27T13:23:15.788Z,43.92
2018-02-27T13:25:46.554Z,44.87
2018-02-27T13:28:17.337Z,46.16
2018-02-27T13:30:48.136Z,46.27
2018-02-27T13:33:18.912Z,46.09
2018-02-27T13:35:49.686Z,45.55
2018-02-27T13:38:20.449Z,44.99
2018-02-27T13:40:51.219Z,44.54
2018-02-27T13:43:21.970Z,44.46
2018-02-27T13:45:52.726Z,45.47
2018-02-27T13:48:23.486Z,45.50
2018-02-27T13:50:54.261Z,47.73
2018-02-27T13:53:25.022Z,44.57
2018-02-27T13:55:55.801Z,44.70
2018-02-27T13:58:26.574Z,44.78
2018-02-27T14:00:57.341Z,45.28
2018-02-27T14:03:28.093Z,44.53
2018-02-27T14:05:58.869Z,45.46
2018-02-27T14:08:29.620Z,44.61
2018-02-27T14:11:00.377Z,43.80
2018-02-27T14:13:31.147Z,44.28
2018-02-27T14:16:01.919Z,46.18
2018-02-27T14:18:32.657Z,46.40
2018-02-27T14:21:03.413Z,46.75
2018-02-27T14:23:34.152Z,45.41
2018-02-27T14:26:04.923Z,46.21
2018-02-27T14:28:35.674Z,47.03
2018-02-27T14:31:06.474Z,46.85
2018-02-27T14:33:37.229Z,46.25
2018-02-27T14:36:08.006Z,45.64
2018-02-27T14:38:38.760Z,45.83
2018-02-27T14:41:09.522Z,46.78
2018-02-27T14:43:40.269Z,47.55
2018-02-27T14:46:11.044Z,46.66
2018-02-27T14:48:41.800Z,47.74
2018-02-27T14:51:12.608Z,45.93
2018-02-27T14:53:43.353Z,47.00
2018-02-27T14:56:14.121Z,48.32
2018-02-27T14:58:44.961Z,47.67
2018-02-27T15:01:15.741Z,48.65
2018-02-27T15:03:46.493Z,50.43
2018-02-27T15:06:17.289Z,48.26
2018-02-27T15:08:48.062Z,49.04
2018-02-27T15:11:18.853Z,47.88
2018-02-27T15:13:49.642Z,47.82
2018-02-27T15:16:20.438Z,48.94
2018-02-27T15:18:51.207Z,48.57
2018-02-27T15:21:21.978Z,49.24
2018-02-27T15:23:52.724Z,48.24
2018-02-27T15:26:23.506Z,47.63
2018-02-27T15:28:54.265Z,48.39
2018-02-27T15:31:25.070Z,48.91
2018-02-27T15:33:55.846Z,47.91
2018-02-27T15:36:26.655Z,48.64
2018-02-27T15:38:57.433Z,49.74
2018-02-27T15:41:28.209Z,49.60
2018-02-27T15:43:58.981Z,48.96
2018-02-27T15:46:29.765Z,49.24
2018-02-27T15:49:00.533Z,50.08
2018-02-27T15:51:31.345Z,50.15
2018-02-27T15:54:02.133Z,50.32
2018-02-27T15:56:32.943Z,50.15
2018-02-27T15:59:03.760Z,51.24
2018-02-27T16:01:34.554Z,50.20
2018-02-27T16:04:05.314Z,49.74
2018-02-27T16:06:36.090Z,49.67
2018-02-27T16:09:06.865Z,49.53
2018-02-27T16:11:37.680Z,52.56
2018-02-27T16:14:08.452Z,50.16
2018-02-27T16:16:39.255Z,50.64
2018-02-27T16:19:10.514Z,50.76
2018-02-27T16:21:41.302Z,50.75
2018-02-27T16:24:12.071Z,51.50
2018-02-27T16:26:42.932Z,50.81
2018-02-27T16:29:13.710Z,52.94
2018-02-27T16:31:44.494Z,53.49
2018-02-27T16:34:15.287Z,52.21
2018-02-27T16:36:46.061Z,53.07
2018-02-27T16:39:17.156Z,54.02
2018-02-27T16:41:48.018Z,52.52
2018-02-27T16:44:18.804Z,53.91
2018-02-27T16:46:49.566Z,54.12
2018-02-27T16:49:20.353Z,53.17
2018-02-27T16:51:51.098Z,52.96
2018-02-27T16:54:21.852Z,54.11
2018-02-27T16:56:52.602Z,54.06
2018-02-27T16:59:30.401Z,54.20
2018-02-27T17:02:01.157Z,53.83
2018-02-27T17:04:31.929Z,53.13
2018-02-27T17:07:02.713Z,53.37
2018-02-27T17:09:33.489Z,54.43
2018-02-27T17:12:04.269Z,53.88
2018-02-27T17:14:35.049Z,55.48
2018-02-27T17:17:05.817Z,55.10
2018-02-27T17:19:36.637Z,56.26
2018-02-27T17:22:07.373Z,55.46
2018-02-27T17:24:38.165Z,54.30
2018-02-27T17:27:08.945Z,56.16
2018-02-27T17:29:39.721Z,55.93
2018-02-27T17:32:10.513Z,57.09
2018-02-27T17:34:41.284Z,55.86
2018-02-27T17:37:12.030Z,54.52
2018-02-27T17:39:42.798Z,53.67
2018-02-27T17:42:13.558Z,54.03
2018-02-27T17:44:44.373Z,53.99
2018-02-27T17:47:15.150Z,53.89
2018-02-27T17:49:45.953Z,54.18
2018-02-27T17:52:16.729Z,53.15
2018-02-27T17:54:47.532Z,53.24
2018-02-27T17:57:18.650Z,54.24
2018-02-27T17:59:49.875Z,53.71
2018-02-27T18:02:20.794Z,53.87
2018-02-27T18:04:51.566Z,54.02
2018-02-27T18:07:22.342Z,53.23
2018-02-27T18:09:55.121Z,55.20
2018-02-27T18:12:25.920Z,53.69
2018-02-27T18:14:56.688Z,53.92
2018-02-27T18:17:27.444Z,54.59
2018-02-27T18:20:00.021Z,55.14
2018-02-27T18:22:30.819Z,54.72
2018-02-27T18:25:01.618Z,54.97
2018-02-27T18:27:32.383Z,56.00
2018-02-27T18:30:03.197Z,55.88
2018-02-27T18:32:36.044Z,56.09
2018-02-27T18:35:06.846Z,56.83
2018-02-27T18:37:37.616Z,56.06
2018-02-27T18:40:08.408Z,56.29
2018-02-27T18:42:39.175Z,56.27
2018-02-27T18:45:09.926Z,56.71
2018-02-27T18:47:40.692Z,57.20
2018-02-27T18:50:11.522Z,56.77
2018-02-27T18:52:42.287Z,57.63
2018-02-27T18:55:13.083Z,57.61
2018-02-27T18:57:43.849Z,57.77
2018-02-27T19:00:14.619Z,58.01
2018-02-27T19:02:45.398Z,57.40
2018-02-27T19:05:16.197Z,57.99
2018-02-27T19:07:46.966Z,58.26
2018-02-27T19:10:17.813Z,58.70
2018-02-27T19:12:48.588Z,59.07
2018-02-27T19:15:19.362Z,59.91
2018-02-27T19:17:50.153Z,59.44
2018-02-27T19:20:20.917Z,59.93
2018-02-27T19:22:51.690Z,60.11
2018-02-27T19:25:22.458Z,59.71
2018-02-27T19:27:53.252Z,59.26
2018-02-27T19:30:24.010Z,60.02
2018-02-27T19:32:54.772Z,59.59
2018-02-27T19:35:25.537Z,59.56
2018-02-27T19:37:56.318Z,59.84
2018-02-27T19:40:27.168Z,60.05
2018-02-27T19:42:57.968Z,60.34
2018-02-27T19:45:28.741Z,60.06
2018-02-27T19:47:59.543Z,60.59
2018-02-27T19:50:30.300Z,60.35
2018-02-27T19:53:03.332Z,60.06
2018-02-27T19:55:34.454Z,60.27
2018-02-27T19:58:05.285Z,60.76
2018-02-27T20:00:36.047Z,60.87
2018-02-27T20:03:06.970Z,61.19
2018-02-27T20:05:37.782Z,61.64
2018-02-27T20:08:08.763Z,61.48
2018-02-27T20:10:39.562Z,61.76
2018-02-27T20:13:10.353Z,61.86
2018-02-27T20:15:41.136Z,61.88
2018-02-27T20:18:11.957Z,61.81
2018-02-27T20:20:42.820Z,62.46
2018-02-27T20:23:20.035Z,62.73
2018-02-27T20:25:50.851Z,63.42
2018-02-27T20:28:27.598Z,63.70
2018-02-27T20:30:58.370Z,64.23
2018-02-27T20:33:29.155Z,64.47
2018-02-27T20:35:59.945Z,64.14
2018-02-27T20:38:36.876Z,63.83
2018-02-27T20:41:07.656Z,64.62
2018-02-27T20:43:38.426Z,64.44
2018-02-27T20:46:09.185Z,64.25
2018-02-27T20:48:39.988Z,64.17
2018-02-27T20:51:10.754Z,63.66
2018-02-27T20:53:41.553Z,63.96
2018-02-27T20:56:12.374Z,63.70
2018-02-27T20:58:43.188Z,63.87
2018-02-27T21:01:13.962Z,63.90
2018-02-27T21:03:44.790Z,64.56
2018-02-27T21:06:15.548Z,64.91
2018-02-27T21:08:46.349Z,64.85
2018-02-27T21:11:17.134Z,65.25
2018-02-27T21:13:47.924Z,65.30
2018-02-27T21:16:18.677Z,64.85
2018-02-27T21:18:49.461Z,63.96
2018-02-27T21:21:20.246Z,64.20
2018-02-27T21:23:51.089Z,64.60
2018-02-27T21:26:21.873Z,65.67
2018-02-27T21:28:52.630Z,65.47
2018-02-27T21:31:23.399Z,66.52
2018-02-27T21:33:54.189Z,67.75
2018-02-27T21:36:24.961Z,68.65
2018-02-27T21:38:55.746Z,68.78
2018-02-27T21:41:26.515Z,69.58
2018-02-27T21:43:57.305Z,70.23
2018-02-27T21:46:28.078Z,71.50
2018-02-27T21:48:58.866Z,72.09
2018-02-27T21:51:29.653Z,72.37
2018-02-27T21:54:00.417Z,72.46
2018-02-27T21:56:31.170Z,73.28
2018-02-27T21:59:01.942Z,73.96
2018-02-27T22:01:33.793Z,74.15
2018-02-27T22:04:04.562Z,74.64
2018-02-27T22:06:35.333Z,74.36
2018-02-27T22:09:09.598Z,74.74
2018-02-27T22:11:40.345Z,75.00
2018-02-27T22:14:11.141Z,74.31
2018-02-27T22:16:41.911Z,74.62
2018-02-27T22:19:14.785Z,73.89
2018-02-27T22:21:45.589Z,73.42
2018-02-27T22:24:16.329Z,72.83
2018-02-27T22:26:47.107Z,73.13
2018-02-27T22:29:17.852Z,73.88
2018-02-27T22:31:48.637Z,73.09
2018-02-27T22:34:19.415Z,71.49
2018-02-27T22:36:50.191Z,71.56
2018-02-27T22:39:20.968Z,69.48
2018-02-27T22:41:51.753Z,69.36
2018-02-27T22:44:22.521Z,69.03
2018-02-27T22:46:53.312Z,69.70
2018-02-27T22:49:24.106Z,70.50
2018-02-27T22:51:54.883Z,71.09
2018-02-27T22:54:25.646Z,71.75
2018-02-27T22:56:56.415Z,71.71
2018-02-27T22:59:27.189Z,72.02
2018-02-27T23:01:58.013Z,72.21
2018-02-27T23:04:28.805Z,72.46
2018-02-27T23:06:59.614Z,72.45
2018-02-27T23:09:30.476Z,72.46
2018-02-27T23:12:01.274Z,72.22
2018-02-27T23:14:32.040Z,72.99
2018-02-27T23:17:02.805Z,73.46
2018-02-27T23:19:33.594Z,73.73
2018-02-27T23:22:04.361Z,74.11
2018-02-27T23:24:38.277Z,74.41
2018-02-27T23:27:09.294Z,74.46
2018-02-27T23:29:40.236Z,74.19
2018-02-27T23:32:12.017Z,74.05
2018-02-27T23:34:44.028Z,74.36
2018-02-27T23:37:14.781Z,74.16
2018-02-27T23:39:47.577Z,74.06
2018-02-27T23:42:18.344Z,73.63
2018-02-27T23:44:49.106Z,73.85
2018-02-27T23:47:19.909Z,73.91
2018-02-27T23:49:50.666Z,73.47
2018-02-27T23:52:21.449Z,73.38
2018-02-27T23:54:52.214Z,73.37
2018-02-27T23:57:23.001Z,73.65
2018-02-27T23:59:53.782Z,73.08
